createdAt,value
2022-11-29T00:01:49.554Z,9.55
2022-11-29T00:04:17.512Z,6.65
2022-11-29T00:07:04.149Z,11.43
2022-11-29T00:09:50.663Z,14.50
2022-11-29T00:12:18.775Z,10.82
2022-11-29T00:14:46.975Z,13.80
2022-11-29T00:17:15.192Z,11.07
2022-11-29T00:19:45.421Z,12.43
2022-11-29T00:22:13.480Z,12.15
2022-11-29T00:24:42.923Z,10.30
2022-11-29T00:27:11.222Z,17.20
2022-11-29T00:29:39.169Z,12.13
2022-11-29T00:32:07.219Z,14.57
2022-11-29T00:34:35.302Z,7.75
2022-11-29T00:37:03.359Z,7.22
2022-11-29T00:39:31.266Z,5.82
2022-11-29T00:41:59.393Z,6.88
2022-11-29T00:44:27.360Z,9.10
2022-11-29T00:46:55.349Z,6.30
2022-11-29T00:49:23.334Z,10.43
2022-11-29T00:51:51.439Z,8.25
2022-11-29T00:54:38.177Z,4.78
2022-11-29T00:57:06.180Z,7.97
2022-11-29T00:59:34.178Z,10.32
2022-11-29T01:02:02.311Z,12.20
2022-11-29T01:04:31.879Z,11.23
2022-11-29T01:06:59.883Z,6.93
2022-11-29T01:09:27.984Z,10.07
2022-11-29T01:14:41.657Z,8.70
2022-11-29T01:17:09.903Z,6.03
2022-11-29T01:19:38.917Z,6.95
2022-11-29T01:22:06.862Z,9.00
2022-11-29T01:24:34.914Z,10.38
2022-11-29T01:27:02.972Z,6.32
2022-11-29T01:29:31.208Z,7.72
2022-11-29T01:31:59.211Z,4.30
2022-11-29T01:34:27.182Z,7.13
2022-11-29T01:36:55.297Z,4.78
2022-11-29T01:39:23.246Z,6.95
2022-11-29T01:41:51.237Z,6.32
2022-11-29T01:47:23.665Z,5.45
2022-11-29T01:49:51.789Z,5.40
2022-11-29T01:55:10.380Z,6.00
2022-11-29T01:57:41.565Z,7.28
2022-11-29T02:00:17.578Z,3.90
2022-11-29T02:02:52.127Z,5.18
2022-11-29T02:05:21.078Z,4.82
2022-11-29T02:07:52.685Z,5.40
2022-11-29T02:10:33.170Z,2.95
2022-11-29T02:13:26.593Z,5.07
2022-11-29T02:16:05.888Z,7.15
2022-11-29T02:18:46.416Z,6.45
2022-11-29T02:21:38.856Z,7.03
2022-11-29T02:24:14.420Z,2.50
2022-11-29T02:27:26.959Z,4.60
2022-11-29T02:30:15.282Z,6.00
2022-11-29T02:32:43.188Z,4.80
2022-11-29T02:35:52.782Z,4.32
2022-11-29T02:38:45.406Z,5.55
2022-11-29T02:41:30.236Z,3.35
2022-11-29T02:44:32.061Z,8.05
2022-11-29T02:50:43.815Z,6.43
2022-11-29T02:53:25.019Z,3.15
2022-11-29T02:56:17.704Z,1.65
2022-11-29T02:58:59.203Z,3.63
2022-11-29T03:01:57.975Z,7.07
2022-11-29T03:04:48.062Z,3.70
2022-11-29T03:08:03.882Z,4.97
2022-11-29T03:11:03.259Z,3.55
2022-11-29T03:13:46.599Z,5.78
2022-11-29T03:16:28.363Z,4.78
2022-11-29T03:19:31.733Z,4.50
2022-11-29T03:22:13.162Z,7.88
2022-11-29T03:24:56.039Z,3.38
2022-11-29T03:27:42.487Z,6.47
2022-11-29T03:30:14.225Z,3.80
2022-11-29T03:33:25.183Z,3.50
2022-11-29T03:36:14.477Z,3.45
2022-11-29T03:38:47.974Z,6.75
2022-11-29T03:41:23.270Z,8.38
2022-11-29T03:44:01.372Z,5.03
2022-11-29T03:46:49.115Z,4.53
2022-11-29T03:49:25.740Z,6.45
2022-11-29T03:52:18.458Z,6.63
2022-11-29T03:55:13.910Z,4.13
2022-11-29T03:57:50.839Z,3.70
2022-11-29T04:03:10.895Z,3.42
2022-11-29T04:05:50.950Z,6.40
2022-11-29T04:08:43.655Z,2.85
2022-11-29T04:11:59.109Z,4.22
2022-11-29T04:14:54.927Z,4.13
2022-11-29T04:20:23.313Z,3.25
2022-11-29T04:23:22.267Z,3.75
2022-11-29T04:26:28.693Z,4.57
2022-11-29T04:29:22.071Z,3.33
2022-11-29T04:32:03.621Z,2.30
2022-11-29T04:34:40.537Z,4.18
2022-11-29T04:37:27.199Z,4.32
2022-11-29T04:40:00.757Z,4.00
2022-11-29T04:42:43.852Z,4.18
2022-11-29T04:45:30.068Z,3.50
2022-11-29T04:48:26.587Z,3.33
2022-11-29T04:51:31.945Z,1.35
2022-11-29T04:54:32.704Z,4.63
2022-11-29T04:57:13.364Z,5.35
2022-11-29T04:59:41.448Z,3.67
2022-11-29T05:02:31.010Z,0.55
2022-11-29T05:05:16.808Z,3.08
2022-11-29T05:08:02.908Z,1.80
2022-11-29T05:10:40.155Z,3.03
2022-11-29T05:13:43.515Z,1.77
2022-11-29T05:16:33.190Z,2.65
2022-11-29T05:19:35.418Z,4.32
2022-11-29T05:22:24.950Z,5.68
2022-11-29T05:25:30.204Z,2.90
2022-11-29T05:28:29.724Z,5.78
2022-11-29T05:31:22.198Z,4.82
2022-11-29T05:34:17.731Z,2.92
2022-11-29T05:37:00.793Z,1.80
2022-11-29T05:39:56.248Z,1.80
2022-11-29T05:42:56.062Z,4.18
2022-11-29T05:46:13.017Z,7.82
2022-11-29T05:48:59.958Z,7.63
2022-11-29T05:51:42.240Z,5.57
2022-11-29T05:54:37.643Z,4.85
2022-11-29T05:57:14.267Z,8.70
2022-11-29T05:59:43.973Z,3.30
2022-11-29T06:02:27.448Z,3.47
2022-11-29T06:05:14.780Z,3.30
2022-11-29T06:08:21.074Z,1.63
2022-11-29T06:11:13.855Z,4.47
2022-11-29T06:13:55.722Z,6.82
2022-11-29T06:16:57.192Z,2.80
2022-11-29T06:19:33.980Z,4.22
2022-11-29T06:22:01.910Z,6.22
2022-11-29T06:24:36.552Z,8.63
2022-11-29T06:27:23.218Z,5.57
2022-11-29T06:30:12.454Z,8.00
2022-11-29T06:32:56.874Z,12.73
2022-11-29T06:35:47.229Z,15.05
2022-11-29T06:38:30.008Z,9.43
2022-11-29T06:41:02.019Z,9.38
2022-11-29T06:43:31.670Z,9.43
2022-11-29T06:46:28.245Z,10.35
2022-11-29T06:49:19.349Z,14.93
2022-11-29T06:52:05.198Z,16.95
2022-11-29T06:55:03.006Z,16.38
2022-11-29T06:57:55.607Z,12.93
2022-11-29T07:00:30.304Z,12.75
2022-11-29T07:03:17.339Z,10.98
2022-11-29T07:06:24.331Z,13.18
2022-11-29T07:09:19.966Z,10.25
2022-11-29T07:11:48.360Z,7.75
2022-11-29T07:14:16.536Z,8.88
2022-11-29T07:17:15.281Z,1.42
2022-11-29T07:20:02.019Z,2.20
2022-11-29T07:22:42.393Z,2.95
2022-11-29T07:25:36.415Z,1.13
2022-11-29T07:28:17.923Z,5.97
2022-11-29T07:30:53.729Z,7.07
2022-11-29T07:33:31.218Z,7.47
2022-11-29T07:36:25.609Z,5.00
2022-11-29T07:39:14.741Z,8.80
2022-11-29T07:42:26.365Z,4.60
2022-11-29T07:45:18.600Z,7.55
2022-11-29T07:47:46.765Z,4.88
2022-11-29T07:50:15.093Z,3.17
2022-11-29T07:52:43.375Z,4.40
2022-11-29T07:55:19.034Z,1.73
2022-11-29T07:57:50.573Z,2.28
2022-11-29T08:00:20.132Z,1.85
2022-11-29T08:02:49.544Z,6.93
2022-11-29T08:05:18.169Z,6.88
2022-11-29T08:07:47.555Z,6.47
2022-11-29T08:10:16.999Z,4.40
2022-11-29T08:12:47.784Z,6.05
2022-11-29T08:15:17.201Z,3.90
2022-11-29T08:17:45.177Z,10.18
2022-11-29T08:20:14.944Z,3.35
2022-11-29T08:22:43.595Z,2.70
2022-11-29T08:25:12.194Z,4.65
2022-11-29T08:27:40.382Z,9.02
2022-11-29T08:30:08.958Z,3.25
2022-11-29T08:32:36.876Z,3.90
2022-11-29T08:35:05.102Z,0.95
2022-11-29T08:37:32.965Z,1.20
2022-11-29T08:42:46.181Z,2.08
2022-11-29T08:45:14.369Z,2.22
2022-11-29T08:47:43.218Z,2.88
2022-11-29T08:53:39.854Z,6.72
2022-11-29T08:57:10.165Z,7.70
2022-11-29T08:59:09.773Z,6.40
2022-11-29T09:01:37.764Z,13.25
2022-11-29T09:04:07.962Z,10.48
2022-11-29T09:06:43.306Z,10.13
2022-11-29T09:09:11.335Z,11.70
2022-11-29T09:11:57.893Z,5.45
2022-11-29T09:17:11.395Z,12.45
2022-11-29T09:19:39.459Z,6.22
2022-11-29T09:22:07.600Z,6.38
2022-11-29T09:24:35.600Z,7.32
2022-11-29T09:27:03.742Z,8.15
2022-11-29T09:29:31.877Z,9.93
2022-11-29T09:32:00.016Z,9.32
2022-11-29T09:34:28.047Z,12.70
2022-11-29T09:36:56.208Z,14.40
2022-11-29T09:39:24.205Z,8.85
2022-11-29T09:44:52.231Z,12.93
2022-11-29T09:48:02.678Z,12.50
2022-11-29T09:50:56.797Z,15.20
2022-11-29T09:53:38.243Z,9.02
2022-11-29T09:56:29.503Z,9.80
2022-11-29T09:59:18.759Z,8.57
2022-11-29T10:02:20.897Z,8.20
2022-11-29T10:05:17.092Z,11.38
2022-11-29T10:08:27.100Z,9.77
2022-11-29T10:11:12.452Z,9.02
2022-11-29T10:14:06.575Z,10.00
2022-11-29T10:16:47.295Z,10.25
2022-11-29T10:19:22.278Z,9.00
2022-11-29T10:22:06.703Z,7.57
2022-11-29T10:24:35.220Z,11.43
2022-11-29T10:27:09.466Z,14.35
2022-11-29T10:29:37.612Z,12.60
2022-11-29T10:32:14.294Z,13.23
2022-11-29T10:37:17.016Z,26.65
2022-11-29T10:40:04.780Z,17.38
2022-11-29T10:42:53.573Z,9.45
2022-11-29T10:45:50.690Z,13.52
2022-11-29T10:48:37.591Z,8.20
2022-11-29T10:51:16.399Z,9.73
2022-11-29T10:53:46.533Z,15.45
2022-11-29T10:56:22.558Z,7.88
2022-11-29T10:59:03.654Z,11.70
2022-11-29T11:01:38.982Z,13.77
2022-11-29T11:04:10.159Z,9.45
2022-11-29T11:06:49.161Z,7.30
2022-11-29T11:09:17.098Z,8.30
2022-11-29T11:15:36.616Z,10.85
2022-11-29T11:18:06.902Z,6.30
2022-11-29T11:20:41.609Z,6.93
2022-11-29T11:23:29.947Z,8.38
2022-11-29T11:26:09.298Z,12.43
2022-11-29T11:29:00.711Z,6.10
2022-11-29T11:31:32.744Z,7.05
2022-11-29T11:34:35.273Z,7.45
2022-11-29T11:37:36.137Z,8.38
2022-11-29T11:40:26.828Z,13.18
2022-11-29T11:42:58.003Z,12.30
2022-11-29T11:48:15.827Z,8.25
2022-11-29T11:50:57.829Z,9.07
2022-11-29T11:53:30.266Z,8.55
2022-11-29T11:56:02.354Z,11.52
2022-11-29T11:58:37.935Z,10.90
2022-11-29T12:01:15.055Z,10.10
2022-11-29T12:06:29.861Z,8.88
2022-11-29T12:09:29.038Z,6.35
2022-11-29T12:12:21.596Z,7.05
2022-11-29T12:15:03.417Z,10.88
2022-11-29T12:17:34.787Z,14.73
2022-11-29T12:20:20.793Z,7.28
2022-11-29T12:23:11.747Z,8.90
2022-11-29T12:26:19.266Z,8.90
2022-11-29T12:29:00.814Z,11.77
2022-11-29T12:31:40.861Z,6.32
2022-11-29T12:34:33.028Z,9.70
2022-11-29T12:40:28.260Z,9.88
2022-11-29T12:43:14.311Z,8.20
2022-11-29T12:45:54.376Z,9.98
2022-11-29T12:48:40.867Z,8.45
2022-11-29T12:51:27.660Z,9.95
2022-11-29T12:54:33.174Z,10.85
2022-11-29T12:57:16.385Z,8.90
2022-11-29T12:59:50.238Z,10.40
2022-11-29T13:02:33.871Z,12.45
2022-11-29T13:05:43.686Z,9.73
2022-11-29T13:08:45.593Z,7.93
2022-11-29T13:11:22.742Z,10.98
2022-11-29T13:17:05.341Z,10.82
2022-11-29T13:19:53.789Z,10.50
2022-11-29T13:22:27.717Z,10.60
2022-11-29T13:25:03.490Z,12.38
2022-11-29T13:27:42.551Z,8.85
2022-11-29T13:30:16.019Z,12.38
2022-11-29T13:32:48.517Z,8.23
2022-11-29T13:35:48.832Z,14.13
2022-11-29T13:38:23.133Z,13.20
2022-11-29T13:41:12.130Z,10.20
2022-11-29T13:43:53.590Z,16.85
2022-11-29T13:47:01.335Z,6.75
2022-11-29T13:49:59.255Z,9.23
2022-11-29T13:52:36.085Z,9.48
2022-11-29T13:55:13.014Z,11.82
2022-11-29T13:58:18.444Z,8.88
2022-11-29T14:00:46.823Z,12.55
2022-11-29T14:03:23.479Z,13.13
2022-11-29T14:06:13.544Z,12.95
2022-11-29T14:09:17.871Z,7.47
2022-11-29T14:12:06.088Z,12.98
2022-11-29T14:15:00.803Z,9.13
2022-11-29T14:17:39.675Z,15.57
2022-11-29T14:20:22.980Z,10.57
2022-11-29T14:25:51.539Z,9.07
2022-11-29T14:28:23.048Z,13.55
2022-11-29T14:31:03.721Z,15.40
2022-11-29T14:33:34.578Z,11.82
2022-11-29T14:36:24.495Z,10.25
2022-11-29T14:39:01.672Z,20.95
2022-11-29T14:41:38.612Z,16.00
2022-11-29T14:44:17.397Z,8.80
2022-11-29T14:47:14.214Z,11.93
2022-11-29T14:49:44.753Z,13.57
2022-11-29T14:52:18.072Z,11.10
2022-11-29T14:55:28.282Z,11.30
2022-11-29T14:58:06.342Z,8.75
2022-11-29T15:00:56.243Z,10.98
2022-11-29T15:03:39.054Z,10.38
2022-11-29T15:06:38.378Z,7.45
2022-11-29T15:09:20.988Z,8.75
2022-11-29T15:11:59.966Z,9.43
2022-11-29T15:14:46.840Z,12.55
2022-11-29T15:17:30.440Z,6.65
2022-11-29T15:20:04.206Z,8.98
2022-11-29T15:23:04.629Z,7.70
2022-11-29T15:25:33.312Z,11.60
2022-11-29T15:28:22.733Z,6.90
2022-11-29T15:31:12.961Z,8.60
2022-11-29T15:33:42.980Z,16.50
2022-11-29T15:36:18.988Z,13.80
2022-11-29T15:38:55.659Z,8.13
2022-11-29T15:41:28.838Z,5.43
2022-11-29T15:44:02.553Z,10.63
2022-11-29T15:46:33.090Z,9.40
2022-11-29T15:49:39.859Z,6.85
2022-11-29T15:52:15.513Z,7.07
2022-11-29T15:55:11.338Z,18.05
2022-11-29T15:57:42.529Z,8.60
2022-11-29T16:00:23.453Z,8.05
2022-11-29T16:02:56.677Z,9.35
2022-11-29T16:05:29.590Z,9.85
2022-11-29T16:08:16.174Z,9.35
2022-11-29T16:10:47.781Z,9.25
2022-11-29T16:13:38.565Z,10.45
2022-11-29T16:16:12.336Z,9.20
2022-11-29T16:18:42.410Z,10.80
2022-11-29T16:21:28.588Z,13.38
2022-11-29T16:23:57.582Z,17.80
2022-11-29T16:26:39.296Z,12.43
2022-11-29T16:29:21.602Z,13.68
2022-11-29T16:31:49.720Z,13.30
2022-11-29T16:34:33.394Z,11.57
2022-11-29T16:37:06.891Z,10.73
2022-11-29T16:39:37.998Z,9.18
2022-11-29T16:42:15.031Z,9.88
2022-11-29T16:44:47.061Z,11.40
2022-11-29T16:47:22.900Z,12.82
2022-11-29T16:50:03.181Z,9.38
2022-11-29T16:52:33.259Z,8.60
2022-11-29T16:55:01.359Z,13.90
2022-11-29T16:57:30.505Z,8.10
2022-11-29T16:59:58.669Z,7.97
2022-11-29T17:02:29.199Z,11.88
2022-11-29T17:04:58.406Z,9.48
2022-11-29T17:07:30.058Z,7.78
2022-11-29T17:09:59.238Z,7.78
2022-11-29T17:12:27.354Z,10.85
2022-11-29T17:14:55.454Z,9.73
2022-11-29T17:17:23.501Z,10.13
2022-11-29T17:19:51.493Z,7.95
2022-11-29T17:22:19.620Z,6.97
2022-11-29T17:24:48.511Z,10.20
2022-11-29T17:27:17.021Z,6.43
2022-11-29T17:29:44.918Z,11.77
2022-11-29T17:32:13.031Z,9.60
2022-11-29T17:34:41.025Z,11.25
2022-11-29T17:37:09.101Z,10.60
2022-11-29T17:39:37.108Z,14.88
2022-11-29T17:42:05.184Z,8.50
2022-11-29T17:44:34.639Z,7.97
2022-11-29T17:47:02.667Z,11.05
2022-11-29T17:49:30.786Z,9.35
2022-11-29T17:52:17.603Z,10.05
2022-11-29T17:54:45.611Z,9.65
2022-11-29T17:57:13.586Z,8.88
2022-11-29T17:59:41.529Z,8.85
2022-11-29T18:02:12.526Z,13.73
2022-11-29T18:04:42.959Z,13.38
2022-11-29T18:07:11.079Z,9.02
2022-11-29T18:09:39.091Z,7.50
2022-11-29T18:12:07.203Z,9.80
2022-11-29T18:14:36.531Z,13.10
2022-11-29T18:17:23.513Z,8.13
2022-11-29T18:19:51.490Z,12.43
2022-11-29T18:22:19.478Z,9.10
2022-11-29T18:24:47.557Z,13.68
2022-11-29T18:27:15.573Z,11.00
2022-11-29T18:29:43.654Z,4.60
2022-11-29T18:32:11.672Z,8.85
2022-11-29T18:34:39.706Z,6.70
2022-11-29T18:37:12.342Z,8.05
2022-11-29T18:39:43.458Z,13.75
2022-11-29T18:42:12.917Z,11.70
2022-11-29T18:44:40.993Z,13.93
2022-11-29T18:47:09.074Z,14.02
2022-11-29T18:49:37.149Z,6.55
2022-11-29T18:52:05.353Z,7.05
2022-11-29T18:54:33.349Z,13.93
2022-11-29T18:59:46.769Z,6.22
2022-11-29T19:02:16.843Z,9.63
2022-11-29T19:07:48.488Z,8.90
2022-11-29T19:10:16.629Z,7.43
2022-11-29T19:12:44.664Z,8.60
2022-11-29T19:15:12.787Z,13.68
2022-11-29T19:17:43.281Z,6.07
2022-11-29T19:20:12.355Z,5.82
2022-11-29T19:22:40.793Z,13.32
2022-11-29T19:25:09.393Z,14.63
2022-11-29T19:27:38.144Z,7.43
2022-11-29T19:30:06.936Z,9.35
2022-11-29T19:33:12.550Z,12.10
2022-11-29T19:35:40.633Z,10.38
2022-11-29T19:38:08.703Z,13.10
2022-11-29T19:40:39.900Z,11.90
2022-11-29T19:43:07.923Z,11.50
2022-11-29T19:45:39.535Z,17.10
2022-11-29T19:50:35.312Z,7.03
2022-11-29T19:53:03.661Z,6.78
2022-11-29T19:55:31.776Z,8.70
2022-11-29T19:58:18.655Z,11.90
2022-11-29T20:00:47.182Z,9.32
2022-11-29T20:03:15.338Z,10.25
2022-11-29T20:05:43.452Z,10.68
2022-11-29T20:08:11.461Z,11.65
2022-11-29T20:10:39.404Z,9.45
2022-11-29T20:13:08.097Z,4.68
2022-11-29T20:15:54.664Z,6.00
2022-11-29T20:18:22.697Z,6.40
2022-11-29T20:20:50.613Z,8.80
2022-11-29T20:23:18.558Z,7.97
2022-11-29T20:25:49.482Z,10.57
2022-11-29T20:28:17.433Z,11.00
2022-11-29T20:30:46.009Z,10.88
2022-11-29T20:33:32.723Z,10.98
2022-11-29T20:36:06.819Z,8.43
2022-11-29T20:38:57.605Z,11.98
2022-11-29T20:41:38.867Z,15.10
2022-11-29T20:44:07.022Z,8.98
2022-11-29T20:46:35.168Z,12.27
2022-11-29T20:49:06.669Z,13.70
2022-11-29T20:51:55.904Z,8.02
2022-11-29T20:54:23.946Z,19.67
2022-11-29T20:56:51.961Z,12.63
2022-11-29T20:59:19.893Z,9.77
2022-11-29T21:01:47.962Z,7.00
2022-11-29T21:04:21.631Z,8.52
2022-11-29T21:06:51.229Z,4.85
2022-11-29T21:09:19.295Z,4.78
2022-11-29T21:11:47.640Z,4.35
2022-11-29T21:14:15.974Z,8.20
2022-11-29T21:16:44.398Z,3.60
2022-11-29T21:19:24.297Z,4.68
2022-11-29T21:21:58.228Z,5.40
2022-11-29T21:24:32.142Z,4.13
2022-11-29T21:27:00.640Z,9.80
2022-11-29T21:29:28.817Z,5.47
2022-11-29T21:31:57.081Z,6.72
2022-11-29T21:34:25.113Z,9.85
2022-11-29T21:36:57.286Z,7.85
2022-11-29T21:39:31.711Z,7.25
2022-11-29T21:41:59.836Z,6.15
2022-11-29T21:44:27.899Z,10.32
2022-11-29T21:46:56.065Z,6.80
2022-11-29T21:49:24.070Z,3.83
2022-11-29T21:51:52.157Z,6.20
2022-11-29T21:54:20.105Z,7.63
2022-11-29T21:56:48.101Z,5.28
2022-11-29T21:59:16.042Z,5.45
2022-11-29T22:01:44.153Z,5.80
2022-11-29T22:04:12.429Z,7.30
2022-11-29T22:06:40.565Z,4.43
2022-11-29T22:09:08.480Z,5.78
2022-11-29T22:11:36.633Z,5.25
2022-11-29T22:14:20.082Z,4.32
2022-11-29T22:16:59.358Z,4.80
2022-11-29T22:19:36.475Z,10.65
2022-11-29T22:22:06.567Z,9.40
2022-11-29T22:24:36.908Z,4.53
2022-11-29T22:27:04.956Z,7.20
2022-11-29T22:29:33.033Z,6.05
2022-11-29T22:32:01.559Z,8.27
2022-11-29T22:37:15.189Z,4.45
2022-11-29T22:39:43.329Z,8.07
2022-11-29T22:42:11.710Z,6.05
2022-11-29T22:44:39.825Z,3.00
2022-11-29T22:47:08.057Z,4.57
2022-11-29T22:49:54.422Z,1.88
2022-11-29T22:52:22.583Z,4.07
2022-11-29T22:54:50.843Z,4.28
2022-11-29T22:57:37.447Z,7.47
2022-11-29T23:00:06.288Z,4.03
2022-11-29T23:02:34.541Z,10.02
2022-11-29T23:05:03.065Z,5.50
2022-11-29T23:07:31.364Z,9.27
2022-11-29T23:09:59.729Z,5.05
2022-11-29T23:12:27.730Z,3.08
2022-11-29T23:17:41.233Z,7.43
2022-11-29T23:20:10.233Z,7.95
2022-11-29T23:22:39.594Z,4.82
2022-11-29T23:25:08.067Z,7.20
2022-11-29T23:27:36.266Z,3.78
2022-11-29T23:30:05.119Z,8.30
2022-11-29T23:32:51.787Z,6.13
2022-11-29T23:35:19.973Z,3.85
2022-11-29T23:37:48.117Z,7.30
2022-11-29T23:40:16.290Z,6.18
2022-11-29T23:42:47.216Z,5.95
2022-11-29T23:45:36.744Z,3.38
2022-11-29T23:48:05.021Z,2.42
2022-11-29T23:50:33.424Z,4.20
2022-11-29T23:53:40.176Z,6.95
2022-11-29T23:56:15.142Z,5.22
2022-11-29T23:58:44.425Z,6.65
